Terminal Aerodrome Forecast
Issued by NWS Pittsburgh, PA

Current Version | Previous Version | Graphics & Text | Print | Product List | Glossary On
Versions: 1 2 3 4 5 6 7 8 9 10 11 12 13 14 15 16 17 18 19 20 21 22 23 24 25 26 27 28 29 30 31 32 33 34 35 36
000
FTUS41 KPBZ 152144 AAB
TAFPIT
TAF AMD
KPIT 152144Z 1522/1624 24008G16KT P6SM VCSH BKN045
      TEMPO 1522/1601 3SM -SHSN OVC030
     FM160100 25011G22KT P6SM VCSH BKN025
     FM160900 25009KT P6SM VCSH BKN025
     FM161500 24009KT P6SM VCSH BKN060=

USA.gov is the U.S. government's official web portal to all federal, state and local government web resources and services.